createdAt,value
2023-04-27T00:03:47.232Z,1.80
2023-04-27T00:07:54.672Z,1.53
2023-04-27T00:12:04.657Z,1.77
2023-04-27T00:16:10.504Z,1.37
2023-04-27T00:20:22.165Z,1.60
2023-04-27T00:24:31.991Z,1.30
2023-04-27T00:28:42.577Z,1.63
2023-04-27T00:32:49.969Z,1.60
2023-04-27T00:36:54.713Z,1.53
2023-04-27T00:41:09.220Z,1.70
2023-04-27T00:45:18.990Z,1.70
2023-04-27T00:49:43.382Z,1.50
2023-04-27T00:54:04.091Z,1.80
2023-04-27T00:58:15.849Z,1.47
2023-04-27T01:02:26.046Z,1.77
2023-04-27T01:06:37.380Z,1.43
2023-04-27T01:10:45.841Z,1.10
2023-04-27T01:14:51.200Z,1.90
2023-04-27T01:19:01.771Z,1.20
2023-04-27T01:23:07.273Z,1.60
2023-04-27T01:27:20.426Z,1.53
2023-04-27T01:31:27.325Z,1.33
2023-04-27T01:35:32.838Z,1.37
2023-04-27T01:39:42.030Z,1.30
2023-04-27T01:43:52.758Z,1.77
2023-04-27T01:47:59.715Z,1.83
2023-04-27T01:52:03.997Z,1.30
2023-04-27T01:56:08.197Z,1.60
2023-04-27T02:00:16.511Z,1.50
2023-04-27T02:04:27.075Z,2.13
2023-04-27T02:08:33.085Z,1.63
2023-04-27T02:12:37.450Z,1.40
2023-04-27T02:16:45.381Z,1.30
2023-04-27T02:20:50.104Z,1.60
2023-04-27T02:24:55.560Z,1.23
2023-04-27T02:29:00.339Z,1.80
2023-04-27T02:33:08.809Z,1.40
2023-04-27T02:37:12.512Z,1.33
2023-04-27T02:41:16.379Z,1.50
2023-04-27T02:45:22.920Z,1.30
2023-04-27T02:49:28.941Z,0.97
2023-04-27T02:53:40.648Z,1.80
2023-04-27T02:57:45.842Z,1.23
2023-04-27T03:01:53.949Z,1.73
2023-04-27T03:06:01.617Z,1.40
2023-04-27T03:10:10.542Z,1.43
2023-04-27T03:14:15.286Z,1.40
2023-04-27T03:18:22.403Z,1.53
2023-04-27T03:22:29.562Z,1.47
2023-04-27T03:26:35.381Z,1.23
2023-04-27T03:30:45.352Z,1.37
2023-04-27T03:34:51.602Z,1.77
2023-04-27T03:38:59.652Z,1.77
2023-04-27T03:43:04.561Z,1.50
2023-04-27T03:47:10.065Z,1.43
2023-04-27T03:51:27.921Z,1.33
2023-04-27T03:55:43.594Z,1.23
2023-04-27T03:59:50.098Z,1.63
2023-04-27T04:03:59.785Z,1.53
2023-04-27T04:08:06.387Z,1.60
2023-04-27T04:12:12.974Z,1.83
2023-04-27T04:16:17.529Z,1.40
2023-04-27T04:20:22.652Z,1.53
2023-04-27T04:24:28.154Z,2.27
2023-04-27T04:28:33.618Z,1.57
2023-04-27T04:32:39.055Z,1.40
2023-04-27T04:36:45.161Z,2.10
2023-04-27T04:40:51.340Z,1.90
2023-04-27T04:45:01.273Z,1.80
2023-04-27T04:49:10.559Z,1.43
2023-04-27T04:53:16.699Z,1.83
2023-04-27T04:57:23.029Z,1.10
2023-04-27T05:01:31.483Z,1.50
2023-04-27T05:05:36.232Z,1.20
2023-04-27T05:09:41.894Z,1.30
2023-04-27T05:13:46.102Z,1.27
2023-04-27T05:17:54.646Z,1.97
2023-04-27T05:22:00.756Z,2.03
2023-04-27T05:26:13.802Z,2.03
2023-04-27T05:30:22.439Z,1.60
2023-04-27T05:34:29.128Z,1.77
2023-04-27T05:38:36.508Z,1.67
2023-04-27T05:42:40.352Z,1.97
2023-04-27T05:46:46.154Z,1.40
2023-04-27T05:51:02.758Z,1.83
2023-04-27T05:55:10.063Z,1.50
2023-04-27T05:59:14.080Z,2.00
2023-04-27T06:03:19.622Z,2.17
2023-04-27T06:07:28.331Z,2.10
2023-04-27T06:11:35.545Z,2.27
2023-04-27T06:15:39.903Z,1.70
2023-04-27T06:19:49.814Z,1.57
2023-04-27T06:23:56.056Z,1.80
2023-04-27T06:28:02.071Z,2.27
2023-04-27T06:32:08.029Z,1.70
2023-04-27T06:36:12.790Z,2.43
2023-04-27T06:40:29.210Z,2.07
2023-04-27T06:44:33.025Z,2.80
2023-04-27T06:48:39.824Z,1.80
2023-04-27T06:52:51.022Z,1.60
2023-04-27T06:56:59.029Z,2.10
2023-04-27T07:01:04.567Z,3.07
2023-04-27T07:05:09.899Z,1.80
2023-04-27T07:09:26.509Z,1.70
2023-04-27T07:13:34.416Z,1.77
2023-04-27T07:17:39.573Z,1.67
2023-04-27T07:21:43.239Z,1.50
2023-04-27T07:25:46.894Z,1.67
2023-04-27T07:29:52.588Z,1.43
2023-04-27T07:33:56.318Z,1.50
2023-04-27T07:38:01.321Z,1.70
2023-04-27T07:42:05.642Z,1.50
2023-04-27T07:46:12.163Z,1.77
2023-04-27T07:50:16.477Z,1.80
2023-04-27T07:54:20.559Z,1.50
2023-04-27T07:58:24.351Z,1.30
2023-04-27T08:02:32.062Z,1.27
2023-04-27T08:06:37.092Z,2.00
2023-04-27T08:10:43.047Z,1.63
2023-04-27T08:14:47.519Z,1.43
2023-04-27T08:18:52.992Z,1.43
2023-04-27T08:22:56.883Z,1.60
2023-04-27T08:27:00.551Z,1.70
2023-04-27T08:31:04.491Z,1.70
2023-04-27T08:35:12.749Z,1.60
2023-04-27T08:39:16.566Z,1.53
2023-04-27T08:43:21.929Z,1.60
2023-04-27T08:47:35.177Z,1.83
2023-04-27T08:51:48.849Z,1.63
2023-04-27T08:55:52.510Z,1.40
2023-04-27T09:00:02.424Z,1.73
2023-04-27T09:04:07.830Z,1.20
2023-04-27T09:08:13.792Z,1.10
2023-04-27T09:12:18.998Z,1.43
2023-04-27T09:16:25.734Z,1.50
2023-04-27T09:20:29.462Z,1.47
2023-04-27T09:24:37.181Z,1.37
2023-04-27T09:28:41.714Z,1.43
2023-04-27T09:32:54.420Z,1.40
2023-04-27T09:36:58.342Z,1.57
2023-04-27T09:41:03.981Z,1.97
2023-04-27T09:45:11.419Z,2.00
2023-04-27T09:49:17.415Z,1.40
2023-04-27T09:53:25.057Z,1.40
2023-04-27T09:57:39.550Z,1.97
2023-04-27T10:01:48.393Z,1.70
2023-04-27T10:06:34.121Z,1.50
2023-04-27T10:10:47.712Z,1.70
2023-04-27T10:14:56.358Z,1.50
2023-04-27T10:19:01.088Z,1.80
2023-04-27T10:23:06.666Z,1.93
2023-04-27T10:27:12.438Z,1.93
2023-04-27T10:31:19.327Z,1.83
2023-04-27T10:35:34.195Z,2.23
2023-04-27T10:39:48.644Z,2.60
2023-04-27T10:43:53.800Z,2.00
2023-04-27T10:48:03.748Z,1.33
2023-04-27T10:52:09.180Z,1.67
2023-04-27T10:56:12.875Z,1.77
2023-04-27T11:00:20.524Z,1.60
2023-04-27T11:04:27.162Z,1.57
2023-04-27T11:08:32.786Z,1.60
2023-04-27T11:12:38.106Z,2.10
2023-04-27T11:16:49.613Z,1.97
2023-04-27T11:20:56.371Z,1.47
2023-04-27T11:25:00.457Z,1.67
2023-04-27T11:29:10.173Z,1.50
2023-04-27T11:33:13.639Z,1.90
2023-04-27T11:37:25.939Z,1.30
2023-04-27T11:41:36.453Z,1.80
2023-04-27T11:45:43.968Z,1.80
2023-04-27T11:49:51.745Z,1.10
2023-04-27T11:53:57.601Z,1.07
2023-04-27T11:58:01.835Z,1.30
2023-04-27T12:02:05.274Z,1.90
2023-04-27T12:10:17.528Z,1.57
2023-04-27T12:14:22.087Z,1.43
2023-04-27T12:18:25.614Z,1.93
2023-04-27T12:22:29.843Z,1.50
2023-04-27T12:26:35.775Z,1.13
2023-04-27T12:30:39.260Z,1.53
2023-04-27T12:34:43.234Z,1.80
2023-04-27T12:38:46.923Z,1.50
2023-04-27T12:42:52.113Z,1.30
2023-04-27T12:46:55.428Z,0.97
2023-04-27T12:50:59.022Z,1.30
2023-04-27T12:55:02.640Z,1.17
2023-04-27T12:59:08.540Z,1.10
2023-04-27T13:03:13.193Z,0.90
2023-04-27T13:07:17.003Z,0.87
2023-04-27T13:11:20.720Z,0.60
2023-04-27T13:15:25.764Z,0.70
2023-04-27T13:19:29.618Z,0.60
2023-04-27T13:23:33.663Z,0.60
2023-04-27T13:27:38.121Z,0.90
2023-04-27T13:31:44.134Z,0.70
2023-04-27T13:35:48.404Z,0.80
2023-04-27T13:39:52.188Z,1.00
2023-04-27T13:43:55.849Z,0.60
2023-04-27T13:48:00.963Z,0.70
2023-04-27T13:52:05.049Z,0.50
2023-04-27T13:56:08.801Z,0.93
2023-04-27T14:00:13.903Z,1.03
2023-04-27T14:04:19.339Z,0.70
2023-04-27T14:08:23.269Z,0.73
2023-04-27T14:12:28.086Z,0.70
2023-04-27T14:16:32.142Z,0.93
2023-04-27T14:20:39.019Z,0.70
2023-04-27T14:24:42.635Z,0.90
2023-04-27T14:28:47.980Z,0.67
2023-04-27T14:32:51.820Z,0.80
2023-04-27T14:36:57.283Z,0.80
2023-04-27T14:41:02.135Z,0.70
2023-04-27T14:45:06.785Z,0.60
2023-04-27T14:49:10.872Z,0.80
2023-04-27T14:53:16.165Z,0.90
2023-04-27T14:57:19.623Z,0.83
2023-04-27T15:01:24.457Z,0.87
2023-04-27T15:05:27.996Z,0.70
2023-04-27T15:09:33.146Z,0.60
2023-04-27T15:13:36.981Z,0.80
2023-04-27T15:17:40.829Z,0.70
2023-04-27T15:21:44.361Z,0.90
2023-04-27T15:25:52.125Z,0.90
2023-04-27T15:29:56.272Z,0.80
2023-04-27T15:34:00.536Z,0.90
2023-04-27T15:38:04.442Z,0.90
2023-04-27T15:42:09.982Z,0.60
2023-04-27T15:46:16.288Z,0.70
2023-04-27T15:50:19.772Z,1.00
2023-04-27T15:54:25.300Z,0.70
2023-04-27T15:58:30.604Z,0.70
2023-04-27T16:02:35.239Z,0.53
2023-04-27T16:06:39.453Z,0.97
2023-04-27T16:10:43.278Z,0.60
2023-04-27T16:15:02.789Z,0.60
2023-04-27T16:19:07.595Z,0.70
2023-04-27T16:23:11.083Z,0.73
2023-04-27T16:27:14.674Z,0.80
2023-04-27T16:31:19.519Z,0.70
2023-04-27T16:35:23.391Z,1.00
2023-04-27T16:39:26.852Z,1.63
2023-04-27T16:43:34.032Z,1.17
2023-04-27T16:47:38.987Z,1.07
2023-04-27T16:51:43.717Z,1.30
2023-04-27T16:55:47.123Z,1.03
2023-04-27T16:59:51.645Z,1.50
2023-04-27T17:03:57.328Z,1.90
2023-04-27T17:08:02.614Z,1.87
2023-04-27T17:12:11.209Z,1.93
2023-04-27T17:16:16.265Z,1.80
2023-04-27T17:20:21.386Z,1.40
2023-04-27T17:24:28.295Z,1.83
2023-04-27T17:28:35.787Z,1.20
2023-04-27T17:32:42.801Z,2.00
2023-04-27T17:36:47.882Z,1.60
2023-04-27T17:40:52.333Z,2.07
2023-04-27T17:44:56.454Z,2.37
2023-04-27T17:49:00.341Z,2.30
2023-04-27T17:53:05.355Z,2.40
2023-04-27T17:57:09.276Z,2.00
2023-04-27T18:01:13.720Z,2.10
2023-04-27T18:05:17.641Z,2.17
2023-04-27T18:09:23.679Z,2.77
2023-04-27T18:13:27.300Z,2.90
2023-04-27T18:17:30.807Z,2.30
2023-04-27T18:21:34.502Z,2.20
2023-04-27T18:25:39.501Z,2.33
2023-04-27T18:29:43.248Z,2.00
2023-04-27T18:33:47.241Z,1.40
2023-04-27T18:37:51.270Z,2.30
2023-04-27T18:41:57.326Z,3.10
2023-04-27T18:46:00.962Z,1.90
2023-04-27T18:50:04.520Z,1.80
2023-04-27T18:54:08.437Z,1.70
2023-04-27T18:58:13.498Z,1.73
2023-04-27T19:02:17.648Z,2.17
2023-04-27T19:06:21.551Z,1.80
2023-04-27T19:10:25.224Z,2.10
2023-04-27T19:14:30.873Z,1.97
2023-04-27T19:18:34.371Z,2.20
2023-04-27T19:22:38.079Z,1.70
2023-04-27T19:26:41.644Z,1.90
2023-04-27T19:30:46.860Z,2.80
2023-04-27T19:34:50.491Z,2.43
2023-04-27T19:38:53.800Z,2.97
2023-04-27T19:42:58.189Z,3.03
2023-04-27T19:47:02.910Z,3.00
2023-04-27T19:51:10.435Z,2.53
2023-04-27T19:55:14.165Z,2.43
2023-04-27T19:59:17.813Z,2.33
2023-04-27T20:03:22.897Z,2.37
2023-04-27T20:07:26.404Z,2.37
2023-04-27T20:11:29.859Z,3.33
2023-04-27T20:15:33.557Z,3.20
2023-04-27T20:19:40.742Z,2.13
2023-04-27T20:23:44.128Z,2.83
2023-04-27T20:27:47.585Z,2.43
2023-04-27T20:31:51.653Z,2.57
2023-04-27T20:36:03.634Z,2.47
2023-04-27T20:40:14.240Z,2.73
2023-04-27T20:44:18.527Z,2.37
2023-04-27T20:48:21.809Z,2.87
2023-04-27T20:52:30.234Z,2.73
2023-04-27T20:56:35.157Z,3.13
2023-04-27T21:00:38.776Z,3.03
2023-04-27T21:04:42.318Z,3.23
2023-04-27T21:08:47.804Z,2.57
2023-04-27T21:12:51.752Z,2.60
2023-04-27T21:16:55.388Z,2.90
2023-04-27T21:20:59.283Z,3.30
2023-04-27T21:25:04.830Z,3.03
2023-04-27T21:29:08.554Z,3.13
2023-04-27T21:33:11.899Z,2.93
2023-04-27T21:37:16.348Z,3.23
2023-04-27T21:41:21.628Z,3.70
2023-04-27T21:45:25.333Z,2.70
2023-04-27T21:49:28.851Z,2.67
2023-04-27T21:53:32.247Z,2.70
2023-04-27T21:57:37.246Z,2.73
2023-04-27T22:01:41.326Z,3.30
2023-04-27T22:05:45.510Z,3.10
2023-04-27T22:09:49.078Z,2.93
2023-04-27T22:13:54.656Z,2.50
2023-04-27T22:17:58.010Z,2.80
2023-04-27T22:22:01.686Z,2.63
2023-04-27T22:26:06.626Z,3.20
2023-04-27T22:30:15.227Z,3.67
2023-04-27T22:34:18.724Z,2.83
2023-04-27T22:38:22.342Z,2.87
2023-04-27T22:42:25.924Z,3.70
2023-04-27T22:46:31.620Z,3.67
2023-04-27T22:50:35.530Z,3.03
2023-04-27T22:54:38.950Z,3.50
2023-04-27T22:58:42.318Z,3.43
2023-04-27T23:02:47.570Z,3.47
2023-04-27T23:06:53.738Z,2.93
2023-04-27T23:10:58.336Z,4.20
2023-04-27T23:15:01.871Z,4.37
2023-04-27T23:19:06.694Z,4.03
2023-04-27T23:23:10.053Z,4.43
2023-04-27T23:27:13.475Z,4.40
2023-04-27T23:31:16.917Z,3.60
2023-04-27T23:35:22.130Z,4.37
2023-04-27T23:39:25.649Z,3.77
2023-04-27T23:43:29.075Z,3.87
2023-04-27T23:47:34.161Z,3.93
2023-04-27T23:51:40.030Z,4.10
2023-04-27T23:55:43.422Z,4.00
2023-04-27T23:59:47.432Z,3.63
